Biarritz-Bayonne/Anglet

Airport
ICAO code: 
LFBZ
Summary
ICAO Region: 
EUR
Territory: 
Location: 
Biarritz-Bayonne/Anglet, Aquitaine,
Coordinates: 
Aerial View: 
43° 28' 6.051" N, 1° 31' 22.83" W
Airport WX: 
Fog
Metar
Observation
LFBZ 302130Z AUTO 20004KT CAVOK 08/07 Q1024 NOSIG
Station
Biarritz
Date/Time
2021-11-30 21:30:00
Wind direction
200°
Wind speed
04 kts
Lowest cloud amount
clouds and visibility OK
Temperature
8°C
Dew point
7°C
Humidity
93%
QNH
1024 hPa
Weather condition
n/a

Description

International airport serving Biarritz.

Climatology

Temperate Marine climate/Oceanic climate (Köppen climate classification Cfb). Moderately cool summer and comparatively warm winter with a temperature range of only 14°C. Prevailing south-westerly winds from the Atlantic Ocean.

Runways

Designator Length Width Surface Rops
9/27 2250 45 ASP Yes/Yes
Airport map: 
Aerial View: 

SKYbrary Partners:

Safety knowledge contributed by: